sensor_id;sensor_type;location;lat;lon;timestamp;P1;durP1;ratioP1;P2;durP2;ratioP2
35418;SDS011;21525;41.240;16.500;2023-02-02T00:00:45;9.82;;;4.10;;
35418;SDS011;21525;41.240;16.500;2023-02-02T00:03:11;7.70;;;4.13;;
35418;SDS011;21525;41.240;16.500;2023-02-02T00:05:37;8.32;;;4.22;;
35418;SDS011;21525;41.240;16.500;2023-02-02T00:08:03;6.88;;;3.83;;
35418;SDS011;21525;41.240;16.500;2023-02-02T00:10:29;11.38;;;4.30;;
35418;SDS011;21525;41.240;16.500;2023-02-02T00:12:54;7.95;;;3.55;;
35418;SDS011;21525;41.240;16.500;2023-02-02T00:15:22;8.10;;;4.05;;
35418;SDS011;21525;41.240;16.500;2023-02-02T00:17:49;8.13;;;4.25;;
35418;SDS011;21525;41.240;16.500;2023-02-02T00:20:15;6.82;;;3.67;;
35418;SDS011;21525;41.240;16.500;2023-02-02T00:22:40;7.20;;;3.65;;
35418;SDS011;21525;41.240;16.500;2023-02-02T00:25:06;9.63;;;4.15;;
35418;SDS011;21525;41.240;16.500;2023-02-02T00:27:33;7.25;;;3.45;;
35418;SDS011;21525;41.240;16.500;2023-02-02T00:29:58;9.50;;;4.05;;
35418;SDS011;21525;41.240;16.500;2023-02-02T00:32:24;11.57;;;4.32;;
35418;SDS011;21525;41.240;16.500;2023-02-02T00:34:50;15.43;;;5.05;;
35418;SDS011;21525;41.240;16.500;2023-02-02T00:37:16;14.35;;;4.40;;
35418;SDS011;21525;41.240;16.500;2023-02-02T00:39:41;10.00;;;4.40;;
35418;SDS011;21525;41.240;16.500;2023-02-02T00:42:09;9.45;;;3.75;;
35418;SDS011;21525;41.240;16.500;2023-02-02T00:44:36;5.82;;;4.07;;
35418;SDS011;21525;41.240;16.500;2023-02-02T00:47:20;9.35;;;3.58;;
35418;SDS011;21525;41.240;16.500;2023-02-02T00:49:47;7.47;;;3.00;;
35418;SDS011;21525;41.240;16.500;2023-02-02T00:52:13;10.13;;;3.40;;
35418;SDS011;21525;41.240;16.500;2023-02-02T00:54:39;7.68;;;3.13;;
35418;SDS011;21525;41.240;16.500;2023-02-02T00:57:04;7.00;;;3.03;;
35418;SDS011;21525;41.240;16.500;2023-02-02T00:59:30;6.35;;;3.17;;
35418;SDS011;21525;41.240;16.500;2023-02-02T01:01:56;7.13;;;3.00;;
35418;SDS011;21525;41.240;16.500;2023-02-02T01:04:22;9.45;;;3.38;;
35418;SDS011;21525;41.240;16.500;2023-02-02T01:06:48;7.70;;;3.30;;
35418;SDS011;21525;41.240;16.500;2023-02-02T01:09:14;12.13;;;3.85;;
35418;SDS011;21525;41.240;16.500;2023-02-02T01:11:40;7.28;;;3.75;;
35418;SDS011;21525;41.240;16.500;2023-02-02T01:14:06;7.53;;;2.85;;
35418;SDS011;21525;41.240;16.500;2023-02-02T01:16:33;6.80;;;3.05;;
35418;SDS011;21525;41.240;16.500;2023-02-02T01:18:59;5.53;;;2.63;;
35418;SDS011;21525;41.240;16.500;2023-02-02T01:21:25;9.02;;;3.22;;
35418;SDS011;21525;41.240;16.500;2023-02-02T01:23:51;9.75;;;3.10;;
35418;SDS011;21525;41.240;16.500;2023-02-02T01:26:17;7.00;;;2.95;;
35418;SDS011;21525;41.240;16.500;2023-02-02T01:28:43;9.27;;;2.92;;
35418;SDS011;21525;41.240;16.500;2023-02-02T01:31:14;4.32;;;2.42;;
35418;SDS011;21525;41.240;16.500;2023-02-02T01:33:43;8.73;;;2.85;;
35418;SDS011;21525;41.240;16.500;2023-02-02T01:36:10;7.43;;;2.63;;
35418;SDS011;21525;41.240;16.500;2023-02-02T01:38:38;8.02;;;2.45;;
35418;SDS011;21525;41.240;16.500;2023-02-02T01:41:04;8.40;;;2.70;;
35418;SDS011;21525;41.240;16.500;2023-02-02T01:46:11;5.88;;;3.03;;
35418;SDS011;21525;41.240;16.500;2023-02-02T01:48:39;6.28;;;2.75;;
35418;SDS011;21525;41.240;16.500;2023-02-02T01:51:13;7.82;;;2.50;;
35418;SDS011;21525;41.240;16.500;2023-02-02T01:53:42;8.18;;;2.38;;
35418;SDS011;21525;41.240;16.500;2023-02-02T01:56:11;9.70;;;2.95;;
35418;SDS011;21525;41.240;16.500;2023-02-02T01:58:42;5.38;;;2.50;;
35418;SDS011;21525;41.240;16.500;2023-02-02T02:01:09;8.40;;;2.90;;
35418;SDS011;21525;41.240;16.500;2023-02-02T02:03:36;7.85;;;2.88;;
35418;SDS011;21525;41.240;16.500;2023-02-02T02:06:03;7.32;;;2.60;;
35418;SDS011;21525;41.240;16.500;2023-02-02T02:11:04;7.07;;;2.60;;
35418;SDS011;21525;41.240;16.500;2023-02-02T02:13:30;9.15;;;3.05;;
35418;SDS011;21525;41.240;16.500;2023-02-02T02:30:23;5.28;;;2.63;;
35418;SDS011;21525;41.240;16.500;2023-02-02T02:33:14;8.70;;;2.85;;
35418;SDS011;21525;41.240;16.500;2023-02-02T02:35:52;8.73;;;3.22;;
35418;SDS011;21525;41.240;16.500;2023-02-02T02:41:08;9.70;;;3.60;;
35418;SDS011;21525;41.240;16.500;2023-02-02T02:43:39;14.38;;;6.38;;
35418;SDS011;21525;41.240;16.500;2023-02-02T02:46:11;16.45;;;7.05;;
35418;SDS011;21525;41.240;16.500;2023-02-02T02:48:36;68.13;;;25.63;;
35418;SDS011;21525;41.240;16.500;2023-02-02T02:51:06;30.17;;;14.63;;
35418;SDS011;21525;41.240;16.500;2023-02-02T02:53:33;14.50;;;7.22;;
35418;SDS011;21525;41.240;16.500;2023-02-02T02:56:18;14.50;;;5.63;;
35418;SDS011;21525;41.240;16.500;2023-02-02T02:58:57;16.67;;;6.32;;
35418;SDS011;21525;41.240;16.500;2023-02-02T03:01:34;18.08;;;7.90;;
35418;SDS011;21525;41.240;16.500;2023-02-02T03:04:21;10.93;;;5.70;;
35418;SDS011;21525;41.240;16.500;2023-02-02T03:06:57;14.65;;;6.47;;
35418;SDS011;21525;41.240;16.500;2023-02-02T03:09:30;13.25;;;6.43;;
35418;SDS011;21525;41.240;16.500;2023-02-02T03:12:00;14.77;;;5.78;;
35418;SDS011;21525;41.240;16.500;2023-02-02T03:14:26;12.50;;;5.13;;
35418;SDS011;21525;41.240;16.500;2023-02-02T03:16:52;14.52;;;4.68;;
35418;SDS011;21525;41.240;16.500;2023-02-02T03:19:18;9.52;;;4.28;;
35418;SDS011;21525;41.240;16.500;2023-02-02T03:21:44;8.73;;;5.72;;
35418;SDS011;21525;41.240;16.500;2023-02-02T03:24:09;11.07;;;4.70;;
35418;SDS011;21525;41.240;16.500;2023-02-02T03:26:35;10.38;;;3.42;;
35418;SDS011;21525;41.240;16.500;2023-02-02T03:29:02;13.65;;;3.58;;
35418;SDS011;21525;41.240;16.500;2023-02-02T03:31:28;74.65;;;13.55;;
35418;SDS011;21525;41.240;16.500;2023-02-02T03:33:54;8.40;;;3.20;;
35418;SDS011;21525;41.240;16.500;2023-02-02T03:36:20;5.32;;;2.42;;
35418;SDS011;21525;41.240;16.500;2023-02-02T03:38:46;6.43;;;2.63;;
35418;SDS011;21525;41.240;16.500;2023-02-02T03:41:12;6.55;;;3.58;;
35418;SDS011;21525;41.240;16.500;2023-02-02T03:43:38;6.53;;;3.22;;
35418;SDS011;21525;41.240;16.500;2023-02-02T03:46:04;6.13;;;2.88;;
35418;SDS011;21525;41.240;16.500;2023-02-02T03:48:31;8.75;;;2.70;;
35418;SDS011;21525;41.240;16.500;2023-02-02T03:51:01;6.18;;;2.38;;
35418;SDS011;21525;41.240;16.500;2023-02-02T03:53:30;6.95;;;2.47;;
35418;SDS011;21525;41.240;16.500;2023-02-02T03:55:55;8.13;;;3.05;;
35418;SDS011;21525;41.240;16.500;2023-02-02T03:58:21;6.82;;;2.60;;
35418;SDS011;21525;41.240;16.500;2023-02-02T04:00:47;9.52;;;3.30;;
35418;SDS011;21525;41.240;16.500;2023-02-02T04:03:13;8.63;;;2.55;;
35418;SDS011;21525;41.240;16.500;2023-02-02T04:05:38;8.20;;;4.68;;
35418;SDS011;21525;41.240;16.500;2023-02-02T04:08:04;11.32;;;5.00;;
35418;SDS011;21525;41.240;16.500;2023-02-02T04:10:30;11.38;;;4.65;;
35418;SDS011;21525;41.240;16.500;2023-02-02T04:12:56;10.25;;;3.88;;
35418;SDS011;21525;41.240;16.500;2023-02-02T04:15:21;6.50;;;2.85;;
35418;SDS011;21525;41.240;16.500;2023-02-02T04:17:47;6.13;;;2.80;;
35418;SDS011;21525;41.240;16.500;2023-02-02T04:20:13;7.75;;;3.80;;
35418;SDS011;21525;41.240;16.500;2023-02-02T04:22:39;7.53;;;2.80;;
35418;SDS011;21525;41.240;16.500;2023-02-02T04:25:04;5.10;;;2.58;;
35418;SDS011;21525;41.240;16.500;2023-02-02T04:27:30;6.93;;;2.85;;
35418;SDS011;21525;41.240;16.500;2023-02-02T04:29:58;6.32;;;2.97;;
35418;SDS011;21525;41.240;16.500;2023-02-02T04:32:24;8.88;;;3.45;;
35418;SDS011;21525;41.240;16.500;2023-02-02T04:34:50;8.40;;;2.97;;
35418;SDS011;21525;41.240;16.500;2023-02-02T04:37:15;9.15;;;3.22;;
35418;SDS011;21525;41.240;16.500;2023-02-02T04:39:41;10.30;;;3.00;;
35418;SDS011;21525;41.240;16.500;2023-02-02T04:42:07;7.68;;;2.92;;
35418;SDS011;21525;41.240;16.500;2023-02-02T04:44:33;6.70;;;2.70;;
35418;SDS011;21525;41.240;16.500;2023-02-02T04:46:59;11.27;;;4.07;;
35418;SDS011;21525;41.240;16.500;2023-02-02T04:49:25;7.57;;;3.00;;
35418;SDS011;21525;41.240;16.500;2023-02-02T04:51:50;8.25;;;3.00;;
35418;SDS011;21525;41.240;16.500;2023-02-02T04:54:16;7.20;;;3.30;;
35418;SDS011;21525;41.240;16.500;2023-02-02T04:56:42;10.20;;;3.33;;
35418;SDS011;21525;41.240;16.500;2023-02-02T04:59:08;9.23;;;2.67;;
35418;SDS011;21525;41.240;16.500;2023-02-02T05:01:34;7.53;;;3.08;;
35418;SDS011;21525;41.240;16.500;2023-02-02T05:04:00;9.18;;;3.20;;
35418;SDS011;21525;41.240;16.500;2023-02-02T05:06:25;6.90;;;2.90;;
35418;SDS011;21525;41.240;16.500;2023-02-02T05:08:51;9.13;;;3.25;;
35418;SDS011;21525;41.240;16.500;2023-02-02T05:11:18;6.25;;;2.97;;
35418;SDS011;21525;41.240;16.500;2023-02-02T05:13:46;15.80;;;5.00;;
35418;SDS011;21525;41.240;16.500;2023-02-02T05:16:16;10.43;;;5.47;;
35418;SDS011;21525;41.240;16.500;2023-02-02T05:18:42;10.95;;;4.90;;
35418;SDS011;21525;41.240;16.500;2023-02-02T05:21:08;8.15;;;3.60;;
35418;SDS011;21525;41.240;16.500;2023-02-02T05:23:34;9.50;;;4.70;;
35418;SDS011;21525;41.240;16.500;2023-02-02T05:26:00;7.22;;;2.95;;
35418;SDS011;21525;41.240;16.500;2023-02-02T05:28:26;7.00;;;3.22;;
35418;SDS011;21525;41.240;16.500;2023-02-02T05:30:52;11.88;;;3.10;;
35418;SDS011;21525;41.240;16.500;2023-02-02T05:33:17;6.65;;;2.88;;
35418;SDS011;21525;41.240;16.500;2023-02-02T05:35:44;9.90;;;3.00;;
35418;SDS011;21525;41.240;16.500;2023-02-02T05:38:11;9.98;;;2.83;;
35418;SDS011;21525;41.240;16.500;2023-02-02T05:40:37;10.85;;;3.20;;
35418;SDS011;21525;41.240;16.500;2023-02-02T05:43:02;10.32;;;3.38;;
35418;SDS011;21525;41.240;16.500;2023-02-02T05:45:28;10.70;;;3.95;;
35418;SDS011;21525;41.240;16.500;2023-02-02T05:47:54;7.30;;;3.95;;
35418;SDS011;21525;41.240;16.500;2023-02-02T05:50:20;9.23;;;3.85;;
35418;SDS011;21525;41.240;16.500;2023-02-02T05:52:58;9.68;;;4.88;;
35418;SDS011;21525;41.240;16.500;2023-02-02T05:55:24;18.35;;;6.32;;
35418;SDS011;21525;41.240;16.500;2023-02-02T05:57:50;14.07;;;6.55;;
35418;SDS011;21525;41.240;16.500;2023-02-02T06:00:16;29.17;;;7.90;;
35418;SDS011;21525;41.240;16.500;2023-02-02T06:02:42;18.83;;;9.07;;
35418;SDS011;21525;41.240;16.500;2023-02-02T06:05:08;16.17;;;7.63;;
35418;SDS011;21525;41.240;16.500;2023-02-02T06:07:33;16.98;;;7.07;;
35418;SDS011;21525;41.240;16.500;2023-02-02T06:09:59;14.05;;;6.38;;
35418;SDS011;21525;41.240;16.500;2023-02-02T06:12:25;19.20;;;6.55;;
35418;SDS011;21525;41.240;16.500;2023-02-02T06:14:54;14.35;;;6.13;;
35418;SDS011;21525;41.240;16.500;2023-02-02T06:17:28;13.10;;;6.15;;
35418;SDS011;21525;41.240;16.500;2023-02-02T06:19:54;16.25;;;6.75;;
35418;SDS011;21525;41.240;16.500;2023-02-02T06:22:20;17.90;;;7.55;;
35418;SDS011;21525;41.240;16.500;2023-02-02T06:24:46;17.13;;;9.35;;
35418;SDS011;21525;41.240;16.500;2023-02-02T06:27:11;18.92;;;7.72;;
35418;SDS011;21525;41.240;16.500;2023-02-02T06:29:37;19.08;;;8.20;;
35418;SDS011;21525;41.240;16.500;2023-02-02T06:32:03;25.35;;;8.60;;
35418;SDS011;21525;41.240;16.500;2023-02-02T06:34:29;18.30;;;9.15;;
35418;SDS011;21525;41.240;16.500;2023-02-02T06:36:54;34.40;;;10.40;;
35418;SDS011;21525;41.240;16.500;2023-02-02T06:39:20;20.60;;;9.25;;
35418;SDS011;21525;41.240;16.500;2023-02-02T06:41:46;16.33;;;8.65;;
35418;SDS011;21525;41.240;16.500;2023-02-02T06:44:13;17.13;;;8.82;;
35418;SDS011;21525;41.240;16.500;2023-02-02T06:46:40;15.23;;;8.07;;
35418;SDS011;21525;41.240;16.500;2023-02-02T06:49:06;14.27;;;8.18;;
35418;SDS011;21525;41.240;16.500;2023-02-02T06:51:32;18.83;;;9.35;;
35418;SDS011;21525;41.240;16.500;2023-02-02T06:53:57;20.00;;;9.65;;
35418;SDS011;21525;41.240;16.500;2023-02-02T06:56:23;67.78;;;15.57;;
35418;SDS011;21525;41.240;16.500;2023-02-02T06:58:49;60.35;;;14.77;;
35418;SDS011;21525;41.240;16.500;2023-02-02T07:01:15;58.50;;;13.38;;
35418;SDS011;21525;41.240;16.500;2023-02-02T07:03:41;27.27;;;9.93;;
35418;SDS011;21525;41.240;16.500;2023-02-02T07:06:13;68.25;;;14.95;;
35418;SDS011;21525;41.240;16.500;2023-02-02T07:08:41;37.50;;;10.20;;
35418;SDS011;21525;41.240;16.500;2023-02-02T07:11:10;11.73;;;6.38;;
35418;SDS011;21525;41.240;16.500;2023-02-02T07:13:36;10.95;;;5.93;;
35418;SDS011;21525;41.240;16.500;2023-02-02T07:16:03;12.75;;;6.13;;
35418;SDS011;21525;41.240;16.500;2023-02-02T07:18:29;30.33;;;7.90;;
35418;SDS011;21525;41.240;16.500;2023-02-02T07:20:58;64.90;;;15.13;;
35418;SDS011;21525;41.240;16.500;2023-02-02T07:23:28;72.63;;;15.82;;
35418;SDS011;21525;41.240;16.500;2023-02-02T07:26:05;24.98;;;8.93;;
35418;SDS011;21525;41.240;16.500;2023-02-02T07:28:32;16.15;;;8.02;;
35418;SDS011;21525;41.240;16.500;2023-02-02T07:30:59;23.08;;;8.68;;
35418;SDS011;21525;41.240;16.500;2023-02-02T07:33:25;14.00;;;6.22;;
35418;SDS011;21525;41.240;16.500;2023-02-02T07:35:51;10.50;;;5.97;;
35418;SDS011;21525;41.240;16.500;2023-02-02T07:38:17;15.82;;;6.70;;
35418;SDS011;21525;41.240;16.500;2023-02-02T07:40:43;15.18;;;6.53;;
35418;SDS011;21525;41.240;16.500;2023-02-02T07:43:09;13.48;;;6.55;;
35418;SDS011;21525;41.240;16.500;2023-02-02T07:45:35;14.43;;;7.50;;
35418;SDS011;21525;41.240;16.500;2023-02-02T07:48:02;13.98;;;7.60;;
35418;SDS011;21525;41.240;16.500;2023-02-02T07:50:28;11.45;;;6.72;;
35418;SDS011;21525;41.240;16.500;2023-02-02T07:52:55;11.30;;;6.70;;
35418;SDS011;21525;41.240;16.500;2023-02-02T07:55:22;12.98;;;6.95;;
35418;SDS011;21525;41.240;16.500;2023-02-02T07:57:50;14.32;;;6.70;;
35418;SDS011;21525;41.240;16.500;2023-02-02T08:02:44;12.52;;;6.38;;
35418;SDS011;21525;41.240;16.500;2023-02-02T08:05:13;12.80;;;7.75;;
35418;SDS011;21525;41.240;16.500;2023-02-02T08:07:39;15.93;;;8.25;;
35418;SDS011;21525;41.240;16.500;2023-02-02T08:10:05;23.38;;;8.10;;
35418;SDS011;21525;41.240;16.500;2023-02-02T08:12:31;14.10;;;6.78;;
35418;SDS011;21525;41.240;16.500;2023-02-02T08:14:57;14.68;;;5.72;;
35418;SDS011;21525;41.240;16.500;2023-02-02T08:17:23;13.15;;;6.07;;
35418;SDS011;21525;41.240;16.500;2023-02-02T08:19:49;18.15;;;6.40;;
35418;SDS011;21525;41.240;16.500;2023-02-02T08:22:15;14.98;;;6.15;;
35418;SDS011;21525;41.240;16.500;2023-02-02T08:24:41;10.52;;;5.07;;
35418;SDS011;21525;41.240;16.500;2023-02-02T08:27:07;15.60;;;6.95;;
35418;SDS011;21525;41.240;16.500;2023-02-02T08:29:34;14.75;;;5.88;;
35418;SDS011;21525;41.240;16.500;2023-02-02T08:32:01;11.45;;;5.35;;
35418;SDS011;21525;41.240;16.500;2023-02-02T08:34:27;12.18;;;5.20;;
35418;SDS011;21525;41.240;16.500;2023-02-02T08:36:53;13.10;;;5.20;;
35418;SDS011;21525;41.240;16.500;2023-02-02T08:39:19;18.48;;;6.45;;
35418;SDS011;21525;41.240;16.500;2023-02-02T08:41:45;16.35;;;5.32;;
35418;SDS011;21525;41.240;16.500;2023-02-02T08:44:12;12.90;;;5.68;;
35418;SDS011;21525;41.240;16.500;2023-02-02T08:46:39;11.77;;;5.87;;
35418;SDS011;21525;41.240;16.500;2023-02-02T08:49:06;13.70;;;5.38;;
35418;SDS011;21525;41.240;16.500;2023-02-02T08:54:00;9.50;;;5.03;;
35418;SDS011;21525;41.240;16.500;2023-02-02T08:56:25;11.90;;;5.30;;
35418;SDS011;21525;41.240;16.500;2023-02-02T08:58:55;12.52;;;4.22;;
35418;SDS011;21525;41.240;16.500;2023-02-02T09:01:28;11.35;;;3.88;;
35418;SDS011;21525;41.240;16.500;2023-02-02T09:03:56;14.43;;;4.05;;
35418;SDS011;21525;41.240;16.500;2023-02-02T09:06:25;15.00;;;4.57;;
35418;SDS011;21525;41.240;16.500;2023-02-02T09:08:55;10.50;;;4.28;;
35418;SDS011;21525;41.240;16.500;2023-02-02T09:11:21;14.05;;;4.68;;
35418;SDS011;21525;41.240;16.500;2023-02-02T09:13:47;11.38;;;4.43;;
35418;SDS011;21525;41.240;16.500;2023-02-02T09:16:15;9.85;;;4.15;;
35418;SDS011;21525;41.240;16.500;2023-02-02T09:18:42;11.93;;;4.75;;
35418;SDS011;21525;41.240;16.500;2023-02-02T09:21:10;16.23;;;3.88;;
35418;SDS011;21525;41.240;16.500;2023-02-02T09:23:40;8.75;;;3.75;;
35418;SDS011;21525;41.240;16.500;2023-02-02T09:28:34;14.80;;;4.30;;
35418;SDS011;21525;41.240;16.500;2023-02-02T09:31:00;9.10;;;3.83;;
35418;SDS011;21525;41.240;16.500;2023-02-02T09:33:26;10.35;;;3.75;;
35418;SDS011;21525;41.240;16.500;2023-02-02T09:35:52;8.68;;;3.53;;
35418;SDS011;21525;41.240;16.500;2023-02-02T09:38:18;8.50;;;3.22;;
35418;SDS011;21525;41.240;16.500;2023-02-02T09:40:43;12.90;;;3.80;;
35418;SDS011;21525;41.240;16.500;2023-02-02T09:43:21;9.82;;;5.35;;
35418;SDS011;21525;41.240;16.500;2023-02-02T09:49:37;9.20;;;3.67;;
35418;SDS011;21525;41.240;16.500;2023-02-02T09:54:56;9.52;;;4.60;;
35418;SDS011;21525;41.240;16.500;2023-02-02T09:57:28;15.82;;;4.50;;
35418;SDS011;21525;41.240;16.500;2023-02-02T10:00:01;9.00;;;3.97;;
35418;SDS011;21525;41.240;16.500;2023-02-02T10:02:38;7.38;;;3.72;;
35418;SDS011;21525;41.240;16.500;2023-02-02T10:05:17;29.15;;;6.38;;
35418;SDS011;21525;41.240;16.500;2023-02-02T10:07:49;15.98;;;4.53;;
35418;SDS011;21525;41.240;16.500;2023-02-02T10:10:19;25.25;;;5.80;;
35418;SDS011;21525;41.240;16.500;2023-02-02T10:13:01;8.98;;;3.67;;
35418;SDS011;21525;41.240;16.500;2023-02-02T10:15:43;12.98;;;4.50;;
35418;SDS011;21525;41.240;16.500;2023-02-02T10:34:31;8.00;;;3.85;;
35418;SDS011;21525;41.240;16.500;2023-02-02T10:40:02;14.45;;;4.50;;
35418;SDS011;21525;41.240;16.500;2023-02-02T10:47:27;27.38;;;7.50;;
35418;SDS011;21525;41.240;16.500;2023-02-02T10:50:13;21.60;;;6.57;;
35418;SDS011;21525;41.240;16.500;2023-02-02T10:52:49;10.07;;;5.03;;
35418;SDS011;21525;41.240;16.500;2023-02-02T11:00:53;15.35;;;4.18;;
35418;SDS011;21525;41.240;16.500;2023-02-02T11:03:30;12.43;;;3.97;;
35418;SDS011;21525;41.240;16.500;2023-02-02T11:05:57;11.23;;;3.83;;
35418;SDS011;21525;41.240;16.500;2023-02-02T11:08:45;9.90;;;3.90;;
35418;SDS011;21525;41.240;16.500;2023-02-02T11:13:55;15.23;;;4.80;;
35418;SDS011;21525;41.240;16.500;2023-02-02T11:16:26;17.38;;;3.80;;
35418;SDS011;21525;41.240;16.500;2023-02-02T11:18:55;12.80;;;3.97;;
35418;SDS011;21525;41.240;16.500;2023-02-02T11:21:28;9.63;;;4.38;;
35418;SDS011;21525;41.240;16.500;2023-02-02T11:23:56;11.85;;;4.85;;
35418;SDS011;21525;41.240;16.500;2023-02-02T11:26:38;7.15;;;4.18;;
35418;SDS011;21525;41.240;16.500;2023-02-02T11:29:21;6.70;;;3.65;;
35418;SDS011;21525;41.240;16.500;2023-02-02T11:31:53;12.75;;;3.92;;
35418;SDS011;21525;41.240;16.500;2023-02-02T11:34:20;13.45;;;4.53;;
35418;SDS011;21525;41.240;16.500;2023-02-02T11:36:58;8.40;;;4.40;;
35418;SDS011;21525;41.240;16.500;2023-02-02T11:39:44;7.25;;;3.80;;
35418;SDS011;21525;41.240;16.500;2023-02-02T11:42:15;10.15;;;3.45;;
35418;SDS011;21525;41.240;16.500;2023-02-02T11:44:46;10.48;;;5.07;;
35418;SDS011;21525;41.240;16.500;2023-02-02T11:47:18;12.15;;;6.43;;
35418;SDS011;21525;41.240;16.500;2023-02-02T11:49:46;11.50;;;4.68;;
35418;SDS011;21525;41.240;16.500;2023-02-02T11:52:14;11.65;;;4.05;;
35418;SDS011;21525;41.240;16.500;2023-02-02T11:54:50;9.55;;;3.85;;
35418;SDS011;21525;41.240;16.500;2023-02-02T11:57:21;9.25;;;3.20;;
35418;SDS011;21525;41.240;16.500;2023-02-02T12:00:34;37.78;;;7.35;;
35418;SDS011;21525;41.240;16.500;2023-02-02T12:02:34;51.50;;;9.10;;
35418;SDS011;21525;41.240;16.500;2023-02-02T12:07:35;14.35;;;5.45;;
35418;SDS011;21525;41.240;16.500;2023-02-02T12:18:02;19.15;;;6.57;;
35418;SDS011;21525;41.240;16.500;2023-02-02T12:20:55;17.77;;;9.13;;
35418;SDS011;21525;41.240;16.500;2023-02-02T12:26:19;15.90;;;7.18;;
35418;SDS011;21525;41.240;16.500;2023-02-02T12:34:29;10.43;;;4.63;;
35418;SDS011;21525;41.240;16.500;2023-02-02T12:47:23;13.38;;;5.13;;
35418;SDS011;21525;41.240;16.500;2023-02-02T13:09:30;7.63;;;3.53;;
35418;SDS011;21525;41.240;16.500;2023-02-02T13:12:06;9.77;;;3.38;;
35418;SDS011;21525;41.240;16.500;2023-02-02T13:14:35;9.40;;;3.60;;
35418;SDS011;21525;41.240;16.500;2023-02-02T13:17:40;6.00;;;3.58;;
35418;SDS011;21525;41.240;16.500;2023-02-02T13:20:13;7.97;;;3.72;;
35418;SDS011;21525;41.240;16.500;2023-02-02T13:22:44;6.60;;;3.35;;
35418;SDS011;21525;41.240;16.500;2023-02-02T13:25:26;9.38;;;3.78;;
35418;SDS011;21525;41.240;16.500;2023-02-02T13:27:59;10.52;;;4.70;;
35418;SDS011;21525;41.240;16.500;2023-02-02T13:30:38;15.50;;;7.75;;
35418;SDS011;21525;41.240;16.500;2023-02-02T13:33:06;12.00;;;6.22;;
35418;SDS011;21525;41.240;16.500;2023-02-02T13:38:39;6.32;;;3.72;;
35418;SDS011;21525;41.240;16.500;2023-02-02T13:41:07;8.35;;;3.47;;
35418;SDS011;21525;41.240;16.500;2023-02-02T13:43:42;9.85;;;3.50;;
35418;SDS011;21525;41.240;16.500;2023-02-02T13:51:47;6.38;;;3.17;;
35418;SDS011;21525;41.240;16.500;2023-02-02T13:57:12;9.45;;;3.72;;
35418;SDS011;21525;41.240;16.500;2023-02-02T14:02:56;7.43;;;3.15;;
35418;SDS011;21525;41.240;16.500;2023-02-02T14:13:18;9.82;;;3.53;;
35418;SDS011;21525;41.240;16.500;2023-02-02T14:16:07;9.13;;;3.40;;
35418;SDS011;21525;41.240;16.500;2023-02-02T14:19:04;9.50;;;3.38;;
35418;SDS011;21525;41.240;16.500;2023-02-02T14:26:47;10.48;;;3.40;;
35418;SDS011;21525;41.240;16.500;2023-02-02T14:32:17;8.38;;;3.47;;
35418;SDS011;21525;41.240;16.500;2023-02-02T14:35:52;9.18;;;3.50;;
35418;SDS011;21525;41.240;16.500;2023-02-02T14:37:52;9.43;;;4.00;;
35418;SDS011;21525;41.240;16.500;2023-02-02T14:40:37;7.45;;;3.58;;
35418;SDS011;21525;41.240;16.500;2023-02-02T14:51:11;6.72;;;2.97;;
35418;SDS011;21525;41.240;16.500;2023-02-02T14:53:46;6.50;;;3.15;;
35418;SDS011;21525;41.240;16.500;2023-02-02T14:56:15;7.50;;;3.30;;
35418;SDS011;21525;41.240;16.500;2023-02-02T15:03:57;8.18;;;3.45;;
35418;SDS011;21525;41.240;16.500;2023-02-02T15:06:44;7.75;;;3.00;;
35418;SDS011;21525;41.240;16.500;2023-02-02T15:19:38;9.80;;;3.78;;
35418;SDS011;21525;41.240;16.500;2023-02-02T15:27:50;9.85;;;5.15;;
35418;SDS011;21525;41.240;16.500;2023-02-02T15:30:20;8.18;;;3.80;;
35418;SDS011;21525;41.240;16.500;2023-02-02T15:32:47;10.13;;;3.90;;
35418;SDS011;21525;41.240;16.500;2023-02-02T15:35:17;9.73;;;4.93;;
35418;SDS011;21525;41.240;16.500;2023-02-02T15:37:49;7.85;;;4.32;;
35418;SDS011;21525;41.240;16.500;2023-02-02T15:40:23;12.77;;;4.55;;
35418;SDS011;21525;41.240;16.500;2023-02-02T15:42:58;17.63;;;8.50;;
35418;SDS011;21525;41.240;16.500;2023-02-02T15:45:30;16.65;;;7.28;;
35418;SDS011;21525;41.240;16.500;2023-02-02T15:47:57;15.02;;;5.95;;
35418;SDS011;21525;41.240;16.500;2023-02-02T15:50:24;12.07;;;4.88;;
35418;SDS011;21525;41.240;16.500;2023-02-02T15:52:51;7.63;;;4.15;;
35418;SDS011;21525;41.240;16.500;2023-02-02T15:55:22;8.07;;;4.82;;
35418;SDS011;21525;41.240;16.500;2023-02-02T15:58:00;11.52;;;5.63;;
35418;SDS011;21525;41.240;16.500;2023-02-02T16:00:28;13.02;;;5.35;;
35418;SDS011;21525;41.240;16.500;2023-02-02T16:08:01;17.30;;;7.80;;
35418;SDS011;21525;41.240;16.500;2023-02-02T16:10:33;23.08;;;9.35;;
35418;SDS011;21525;41.240;16.500;2023-02-02T16:13:00;23.05;;;8.50;;
35418;SDS011;21525;41.240;16.500;2023-02-02T16:15:26;21.77;;;9.25;;
35418;SDS011;21525;41.240;16.500;2023-02-02T16:17:59;21.10;;;9.27;;
35418;SDS011;21525;41.240;16.500;2023-02-02T16:20:32;19.45;;;8.30;;
35418;SDS011;21525;41.240;16.500;2023-02-02T16:23:01;15.60;;;8.45;;
35418;SDS011;21525;41.240;16.500;2023-02-02T16:25:31;17.50;;;7.70;;
35418;SDS011;21525;41.240;16.500;2023-02-02T16:28:01;16.98;;;9.95;;
35418;SDS011;21525;41.240;16.500;2023-02-02T16:30:35;17.50;;;8.50;;
35418;SDS011;21525;41.240;16.500;2023-02-02T16:35:52;43.70;;;22.23;;
35418;SDS011;21525;41.240;16.500;2023-02-02T16:41:00;51.13;;;26.15;;
35418;SDS011;21525;41.240;16.500;2023-02-02T16:43:31;64.22;;;33.78;;
35418;SDS011;21525;41.240;16.500;2023-02-02T16:46:02;69.82;;;37.03;;
35418;SDS011;21525;41.240;16.500;2023-02-02T16:48:36;76.03;;;44.15;;
35418;SDS011;21525;41.240;16.500;2023-02-02T16:59:27;92.78;;;56.00;;
35418;SDS011;21525;41.240;16.500;2023-02-02T17:02:17;97.07;;;55.83;;
35418;SDS011;21525;41.240;16.500;2023-02-02T17:04:49;108.22;;;59.45;;
35418;SDS011;21525;41.240;16.500;2023-02-02T17:07:20;115.15;;;62.38;;
35418;SDS011;21525;41.240;16.500;2023-02-02T17:09:46;117.75;;;63.97;;
35418;SDS011;21525;41.240;16.500;2023-02-02T17:14:57;129.45;;;71.32;;
35418;SDS011;21525;41.240;16.500;2023-02-02T17:17:27;118.55;;;67.13;;
35418;SDS011;21525;41.240;16.500;2023-02-02T17:19:53;96.38;;;53.58;;
35418;SDS011;21525;41.240;16.500;2023-02-02T17:22:19;92.05;;;46.40;;
35418;SDS011;21525;41.240;16.500;2023-02-02T17:27:48;65.95;;;35.20;;
35418;SDS011;21525;41.240;16.500;2023-02-02T17:30:09;63.65;;;34.13;;
35418;SDS011;21525;41.240;16.500;2023-02-02T17:32:40;58.70;;;30.17;;
35418;SDS011;21525;41.240;16.500;2023-02-02T17:35:12;52.55;;;31.08;;
35418;SDS011;21525;41.240;16.500;2023-02-02T17:37:43;58.92;;;33.83;;
35418;SDS011;21525;41.240;16.500;2023-02-02T17:40:12;68.22;;;33.70;;
35418;SDS011;21525;41.240;16.500;2023-02-02T17:42:39;71.90;;;36.65;;
35418;SDS011;21525;41.240;16.500;2023-02-02T17:45:11;70.60;;;38.37;;
35418;SDS011;21525;41.240;16.500;2023-02-02T17:47:41;71.07;;;39.83;;
35418;SDS011;21525;41.240;16.500;2023-02-02T17:50:07;73.93;;;41.55;;
35418;SDS011;21525;41.240;16.500;2023-02-02T17:52:34;63.80;;;37.05;;
35418;SDS011;21525;41.240;16.500;2023-02-02T17:57:51;61.63;;;36.15;;
35418;SDS011;21525;41.240;16.500;2023-02-02T18:00:19;59.75;;;35.95;;
35418;SDS011;21525;41.240;16.500;2023-02-02T18:02:58;75.82;;;34.92;;